sensor_id;sensor_type;location;lat;lon;timestamp;pressure;altitude;pressure_sealevel;temperature;humidity
64632;BME280;58358;50.936;0.246;2023-04-26T00:01:21;101373.86;;;5.14;61.58
64632;BME280;58358;50.936;0.246;2023-04-26T00:03:46;101368.74;;;4.96;61.58
64632;BME280;58358;50.936;0.246;2023-04-26T00:06:11;101365.50;;;4.68;63.42
64632;BME280;58358;50.936;0.246;2023-04-26T00:08:36;101367.30;;;3.76;65.30
64632;BME280;58358;50.936;0.246;2023-04-26T00:11:02;101363.66;;;4.77;62.94
64632;BME280;58358;50.936;0.246;2023-04-26T00:13:27;101362.81;;;4.44;63.06
64632;BME280;58358;50.936;0.246;2023-04-26T00:15:52;101355.57;;;4.51;63.04
64632;BME280;58358;50.936;0.246;2023-04-26T00:18:17;101357.94;;;3.27;66.05
64632;BME280;58358;50.936;0.246;2023-04-26T00:20:42;101356.74;;;3.64;68.79
64632;BME280;58358;50.936;0.246;2023-04-26T00:23:07;101352.13;;;4.69;64.60
64632;BME280;58358;50.936;0.246;2023-04-26T00:25:32;101348.75;;;4.97;62.34
64632;BME280;58358;50.936;0.246;2023-04-26T00:27:57;101341.57;;;4.94;61.58
64632;BME280;58358;50.936;0.246;2023-04-26T00:30:22;101342.66;;;3.71;65.28
64632;BME280;58358;50.936;0.246;2023-04-26T00:32:47;101344.15;;;3.78;65.50
64632;BME280;58358;50.936;0.246;2023-04-26T00:35:13;101341.09;;;4.84;64.18
64632;BME280;58358;50.936;0.246;2023-04-26T00:37:38;101341.43;;;5.69;60.11
64632;BME280;58358;50.936;0.246;2023-04-26T00:40:04;101336.51;;;4.64;62.20
64632;BME280;58358;50.936;0.246;2023-04-26T00:42:29;101334.31;;;5.51;61.26
64632;BME280;58358;50.936;0.246;2023-04-26T00:44:55;101336.74;;;5.13;61.77
64632;BME280;58358;50.936;0.246;2023-04-26T00:47:19;101332.29;;;4.05;63.64
64632;BME280;58358;50.936;0.246;2023-04-26T00:49:44;101328.84;;;5.44;61.27
64632;BME280;58358;50.936;0.246;2023-04-26T00:52:10;101327.58;;;4.53;63.42
64632;BME280;58358;50.936;0.246;2023-04-26T00:54:35;101323.56;;;4.90;62.86
64632;BME280;58358;50.936;0.246;2023-04-26T00:57:00;101325.32;;;5.06;62.30
64632;BME280;58358;50.936;0.246;2023-04-26T00:59:25;101325.61;;;5.02;62.61
64632;BME280;58358;50.936;0.246;2023-04-26T01:01:50;101322.33;;;5.43;61.59
64632;BME280;58358;50.936;0.246;2023-04-26T01:04:15;101326.47;;;5.15;63.08
64632;BME280;58358;50.936;0.246;2023-04-26T01:06:40;101326.72;;;4.49;64.03
64632;BME280;58358;50.936;0.246;2023-04-26T01:09:06;101326.38;;;5.36;61.09
64632;BME280;58358;50.936;0.246;2023-04-26T01:11:31;101326.51;;;5.50;61.48
64632;BME280;58358;50.936;0.246;2023-04-26T01:13:56;101329.83;;;5.15;62.51
64632;BME280;58358;50.936;0.246;2023-04-26T01:16:22;101326.53;;;4.74;62.64
64632;BME280;58358;50.936;0.246;2023-04-26T01:18:50;101323.65;;;4.89;62.73
64632;BME280;58358;50.936;0.246;2023-04-26T01:21:11;101323.79;;;5.29;61.67
64632;BME280;58358;50.936;0.246;2023-04-26T01:23:36;101321.54;;;4.43;62.79
64632;BME280;58358;50.936;0.246;2023-04-26T01:26:02;101318.25;;;4.28;63.59
64632;BME280;58358;50.936;0.246;2023-04-26T01:28:27;101309.63;;;4.86;63.82
64632;BME280;58358;50.936;0.246;2023-04-26T01:30:52;101304.73;;;4.28;66.63
64632;BME280;58358;50.936;0.246;2023-04-26T01:33:17;101309.63;;;4.04;66.69
64632;BME280;58358;50.936;0.246;2023-04-26T01:35:42;101317.32;;;3.69;67.86
64632;BME280;58358;50.936;0.246;2023-04-26T01:38:07;101314.48;;;5.21;63.87
64632;BME280;58358;50.936;0.246;2023-04-26T01:40:32;101307.78;;;4.99;63.89
64632;BME280;58358;50.936;0.246;2023-04-26T01:42:57;101307.03;;;4.51;65.33
64632;BME280;58358;50.936;0.246;2023-04-26T01:45:22;101311.78;;;4.13;66.77
64632;BME280;58358;50.936;0.246;2023-04-26T01:47:47;101305.94;;;4.41;65.89
64632;BME280;58358;50.936;0.246;2023-04-26T01:50:12;101299.65;;;5.00;64.62
64632;BME280;58358;50.936;0.246;2023-04-26T01:52:37;101298.47;;;5.16;64.11
64632;BME280;58358;50.936;0.246;2023-04-26T01:55:03;101297.57;;;4.83;63.85
64632;BME280;58358;50.936;0.246;2023-04-26T01:57:27;101299.20;;;4.77;65.93
64632;BME280;58358;50.936;0.246;2023-04-26T01:59:52;101304.41;;;4.71;64.85
64632;BME280;58358;50.936;0.246;2023-04-26T02:02:17;101307.50;;;4.72;64.35
64632;BME280;58358;50.936;0.246;2023-04-26T02:04:43;101315.14;;;5.31;62.44
64632;BME280;58358;50.936;0.246;2023-04-26T02:07:07;101313.60;;;5.26;62.88
64632;BME280;58358;50.936;0.246;2023-04-26T02:09:32;101312.74;;;5.21;63.69
64632;BME280;58358;50.936;0.246;2023-04-26T02:11:58;101317.13;;;5.80;61.51
64632;BME280;58358;50.936;0.246;2023-04-26T02:14:23;101311.61;;;5.03;63.10
64632;BME280;58358;50.936;0.246;2023-04-26T02:16:49;101305.16;;;4.21;65.38
64632;BME280;58358;50.936;0.246;2023-04-26T02:19:14;101302.56;;;4.13;66.65
64632;BME280;58358;50.936;0.246;2023-04-26T02:21:49;101302.04;;;5.20;65.27
64632;BME280;58358;50.936;0.246;2023-04-26T02:24:04;101302.79;;;5.01;64.40
64632;BME280;58358;50.936;0.246;2023-04-26T02:26:30;101305.03;;;5.64;62.35
64632;BME280;58358;50.936;0.246;2023-04-26T02:28:55;101301.88;;;5.32;62.68
64632;BME280;58358;50.936;0.246;2023-04-26T02:31:20;101293.94;;;6.04;62.02
64632;BME280;58358;50.936;0.246;2023-04-26T02:33:46;101290.88;;;5.23;62.79
64632;BME280;58358;50.936;0.246;2023-04-26T02:36:11;101286.76;;;4.73;63.43
64632;BME280;58358;50.936;0.246;2023-04-26T02:38:37;101283.70;;;5.32;63.48
64632;BME280;58358;50.936;0.246;2023-04-26T02:41:03;101284.52;;;5.16;62.33
64632;BME280;58358;50.936;0.246;2023-04-26T02:43:28;101282.63;;;5.26;62.58
64632;BME280;58358;50.936;0.246;2023-04-26T02:45:53;101279.32;;;4.48;65.73
64632;BME280;58358;50.936;0.246;2023-04-26T02:48:18;101284.16;;;4.21;68.30
64632;BME280;58358;50.936;0.246;2023-04-26T02:50:43;101283.84;;;4.13;66.55
64632;BME280;58358;50.936;0.246;2023-04-26T02:53:08;101282.78;;;4.60;65.59
64632;BME280;58358;50.936;0.246;2023-04-26T02:55:34;101285.63;;;5.27;64.22
64632;BME280;58358;50.936;0.246;2023-04-26T02:57:59;101282.44;;;4.82;65.51
64632;BME280;58358;50.936;0.246;2023-04-26T03:00:25;101285.51;;;4.74;64.89
64632;BME280;58358;50.936;0.246;2023-04-26T03:02:50;101287.61;;;4.60;66.72
64632;BME280;58358;50.936;0.246;2023-04-26T03:05:16;101283.47;;;4.75;65.30
64632;BME280;58358;50.936;0.246;2023-04-26T03:07:40;101283.47;;;5.42;63.01
64632;BME280;58358;50.936;0.246;2023-04-26T03:10:07;101283.09;;;4.57;64.81
64632;BME280;58358;50.936;0.246;2023-04-26T03:12:32;101287.83;;;5.38;63.17
64632;BME280;58358;50.936;0.246;2023-04-26T03:14:57;101286.06;;;5.49;62.27
64632;BME280;58358;50.936;0.246;2023-04-26T03:17:23;101281.24;;;4.73;62.84
64632;BME280;58358;50.936;0.246;2023-04-26T03:19:48;101282.28;;;5.12;62.70
64632;BME280;58358;50.936;0.246;2023-04-26T03:22:14;101284.05;;;5.48;61.24
64632;BME280;58358;50.936;0.246;2023-04-26T03:24:39;101290.76;;;5.72;61.22
64632;BME280;58358;50.936;0.246;2023-04-26T03:27:05;101285.82;;;6.09;58.99
64632;BME280;58358;50.936;0.246;2023-04-26T03:29:30;101279.03;;;5.22;61.03
64632;BME280;58358;50.936;0.246;2023-04-26T03:31:56;101275.01;;;5.22;63.00
64632;BME280;58358;50.936;0.246;2023-04-26T03:34:21;101277.23;;;5.57;60.19
64632;BME280;58358;50.936;0.246;2023-04-26T03:36:47;101278.52;;;5.85;59.80
64632;BME280;58358;50.936;0.246;2023-04-26T03:39:12;101275.20;;;5.40;60.17
64632;BME280;58358;50.936;0.246;2023-04-26T03:41:38;101271.00;;;4.95;62.28
64632;BME280;58358;50.936;0.246;2023-04-26T03:44:03;101271.11;;;4.28;63.76
64632;BME280;58358;50.936;0.246;2023-04-26T03:46:28;101271.75;;;4.39;64.69
64632;BME280;58358;50.936;0.246;2023-04-26T03:48:54;101271.69;;;5.06;62.35
64632;BME280;58358;50.936;0.246;2023-04-26T03:51:19;101274.87;;;5.07;61.92
64632;BME280;58358;50.936;0.246;2023-04-26T03:53:45;101274.65;;;5.36;61.58
64632;BME280;58358;50.936;0.246;2023-04-26T03:56:10;101274.36;;;5.40;60.60
64632;BME280;58358;50.936;0.246;2023-04-26T03:58:35;101272.02;;;5.44;60.02
64632;BME280;58358;50.936;0.246;2023-04-26T04:01:02;101268.05;;;6.11;58.33
64632;BME280;58358;50.936;0.246;2023-04-26T04:03:26;101261.77;;;5.42;58.22
64632;BME280;58358;50.936;0.246;2023-04-26T04:05:52;101260.02;;;5.75;58.60
64632;BME280;58358;50.936;0.246;2023-04-26T04:08:17;101257.25;;;5.98;58.45
64632;BME280;58358;50.936;0.246;2023-04-26T04:10:43;101253.49;;;5.80;59.06
64632;BME280;58358;50.936;0.246;2023-04-26T04:13:08;101246.80;;;4.76;61.50
64632;BME280;58358;50.936;0.246;2023-04-26T04:15:34;101243.94;;;4.37;62.02
64632;BME280;58358;50.936;0.246;2023-04-26T04:17:59;101240.88;;;6.08;58.39
64632;BME280;58358;50.936;0.246;2023-04-26T04:20:25;101232.03;;;5.76;58.97
64632;BME280;58358;50.936;0.246;2023-04-26T04:22:50;101234.00;;;5.65;59.77
64632;BME280;58358;50.936;0.246;2023-04-26T04:25:16;101231.96;;;6.07;57.27
64632;BME280;58358;50.936;0.246;2023-04-26T04:27:41;101235.77;;;5.61;59.50
64632;BME280;58358;50.936;0.246;2023-04-26T04:30:07;101241.57;;;5.21;60.84
64632;BME280;58358;50.936;0.246;2023-04-26T04:32:32;101245.25;;;5.80;59.90
64632;BME280;58358;50.936;0.246;2023-04-26T04:34:58;101238.75;;;4.99;60.94
64632;BME280;58358;50.936;0.246;2023-04-26T04:37:23;101241.64;;;5.36;60.40
64632;BME280;58358;50.936;0.246;2023-04-26T04:39:48;101241.55;;;4.75;62.45
64632;BME280;58358;50.936;0.246;2023-04-26T04:42:13;101238.41;;;4.59;63.62
64632;BME280;58358;50.936;0.246;2023-04-26T04:44:38;101234.35;;;4.83;64.00
64632;BME280;58358;50.936;0.246;2023-04-26T04:47:04;101231.58;;;3.68;65.46
64632;BME280;58358;50.936;0.246;2023-04-26T04:49:30;101234.02;;;3.92;66.85
64632;BME280;58358;50.936;0.246;2023-04-26T04:51:55;101235.79;;;5.12;64.43
64632;BME280;58358;50.936;0.246;2023-04-26T04:54:21;101229.64;;;4.31;64.52
64632;BME280;58358;50.936;0.246;2023-04-26T04:56:46;101231.23;;;3.59;65.03
64632;BME280;58358;50.936;0.246;2023-04-26T04:59:12;101225.61;;;4.28;63.82
64632;BME280;58358;50.936;0.246;2023-04-26T05:01:37;101227.36;;;4.90;64.66
64632;BME280;58358;50.936;0.246;2023-04-26T05:04:02;101228.55;;;4.61;63.50
64632;BME280;58358;50.936;0.246;2023-04-26T05:06:29;101230.28;;;5.28;61.55
64632;BME280;58358;50.936;0.246;2023-04-26T05:08:53;101233.79;;;4.77;62.19
64632;BME280;58358;50.936;0.246;2023-04-26T05:11:19;101243.54;;;4.99;59.97
64632;BME280;58358;50.936;0.246;2023-04-26T05:13:45;101242.66;;;5.33;59.96
64632;BME280;58358;50.936;0.246;2023-04-26T05:16:10;101242.18;;;5.85;58.44
64632;BME280;58358;50.936;0.246;2023-04-26T05:18:35;101242.62;;;4.60;60.50
64632;BME280;58358;50.936;0.246;2023-04-26T05:21:01;101243.10;;;5.67;59.72
64632;BME280;58358;50.936;0.246;2023-04-26T05:23:26;101240.50;;;4.81;60.97
64632;BME280;58358;50.936;0.246;2023-04-26T05:25:51;101238.51;;;4.50;63.21
64632;BME280;58358;50.936;0.246;2023-04-26T05:28:16;101241.22;;;4.77;61.54
64632;BME280;58358;50.936;0.246;2023-04-26T05:30:42;101246.05;;;5.53;60.07
64632;BME280;58358;50.936;0.246;2023-04-26T05:33:08;101249.11;;;5.08;60.56
64632;BME280;58358;50.936;0.246;2023-04-26T05:35:33;101245.53;;;5.81;59.88
64632;BME280;58358;50.936;0.246;2023-04-26T05:37:59;101250.44;;;5.99;59.33
64632;BME280;58358;50.936;0.246;2023-04-26T05:40:24;101250.02;;;5.32;60.17
64632;BME280;58358;50.936;0.246;2023-04-26T05:42:50;101247.96;;;5.99;58.97
64632;BME280;58358;50.936;0.246;2023-04-26T05:45:15;101253.03;;;5.79;58.76
64632;BME280;58358;50.936;0.246;2023-04-26T05:47:40;101255.01;;;5.86;59.38
64632;BME280;58358;50.936;0.246;2023-04-26T05:50:07;101253.42;;;6.02;58.67
64632;BME280;58358;50.936;0.246;2023-04-26T05:52:31;101251.78;;;6.26;57.79
64632;BME280;58358;50.936;0.246;2023-04-26T05:54:57;101259.02;;;5.46;59.86
64632;BME280;58358;50.936;0.246;2023-04-26T05:57:22;101255.50;;;6.15;57.67
64632;BME280;58358;50.936;0.246;2023-04-26T05:59:47;101259.80;;;5.47;59.55
64632;BME280;58358;50.936;0.246;2023-04-26T06:02:13;101263.28;;;5.71;60.67
64632;BME280;58358;50.936;0.246;2023-04-26T06:04:38;101264.31;;;5.18;60.48
64632;BME280;58358;50.936;0.246;2023-04-26T06:07:04;101262.56;;;6.31;57.66
64632;BME280;58358;50.936;0.246;2023-04-26T06:09:30;101269.38;;;5.67;59.37
64632;BME280;58358;50.936;0.246;2023-04-26T06:11:56;101266.38;;;6.68;56.99
64632;BME280;58358;50.936;0.246;2023-04-26T06:14:22;101268.36;;;4.58;62.36
64632;BME280;58358;50.936;0.246;2023-04-26T06:16:47;101272.93;;;6.25;58.44
64632;BME280;58358;50.936;0.246;2023-04-26T06:19:12;101271.45;;;5.80;61.22
64632;BME280;58358;50.936;0.246;2023-04-26T06:21:38;101269.00;;;6.74;57.71
64632;BME280;58358;50.936;0.246;2023-04-26T06:24:04;101279.01;;;6.32;58.73
64632;BME280;58358;50.936;0.246;2023-04-26T06:26:29;101278.77;;;6.65;58.63
64632;BME280;58358;50.936;0.246;2023-04-26T06:28:54;101281.87;;;5.88;59.58
64632;BME280;58358;50.936;0.246;2023-04-26T06:31:20;101284.51;;;5.88;60.71
64632;BME280;58358;50.936;0.246;2023-04-26T06:33:45;101285.90;;;6.19;59.10
64632;BME280;58358;50.936;0.246;2023-04-26T06:36:11;101289.94;;;6.11;59.53
64632;BME280;58358;50.936;0.246;2023-04-26T06:38:36;101293.97;;;6.47;59.09
64632;BME280;58358;50.936;0.246;2023-04-26T06:41:02;101291.26;;;6.66;57.10
64632;BME280;58358;50.936;0.246;2023-04-26T06:43:27;101278.91;;;7.08;57.00
64632;BME280;58358;50.936;0.246;2023-04-26T06:45:53;101280.83;;;6.59;58.00
64632;BME280;58358;50.936;0.246;2023-04-26T06:48:19;101286.90;;;6.86;56.99
64632;BME280;58358;50.936;0.246;2023-04-26T06:50:44;101288.24;;;5.73;61.24
64632;BME280;58358;50.936;0.246;2023-04-26T06:53:10;101280.39;;;6.16;58.89
64632;BME280;58358;50.936;0.246;2023-04-26T06:55:35;101279.54;;;5.87;60.06
64632;BME280;58358;50.936;0.246;2023-04-26T06:58:01;101275.81;;;6.66;58.75
64632;BME280;58358;50.936;0.246;2023-04-26T07:00:25;101275.48;;;5.67;60.90
64632;BME280;58358;50.936;0.246;2023-04-26T07:02:51;101277.08;;;6.55;58.51
64632;BME280;58358;50.936;0.246;2023-04-26T07:05:16;101272.07;;;6.84;55.57
64632;BME280;58358;50.936;0.246;2023-04-26T07:07:42;101277.26;;;5.07;59.94
64632;BME280;58358;50.936;0.246;2023-04-26T07:10:08;101276.06;;;5.82;58.41
64632;BME280;58358;50.936;0.246;2023-04-26T07:12:34;101277.98;;;5.96;59.73
64632;BME280;58358;50.936;0.246;2023-04-26T07:14:59;101271.97;;;6.10;57.96
64632;BME280;58358;50.936;0.246;2023-04-26T07:17:28;101268.49;;;6.41;55.57
64632;BME280;58358;50.936;0.246;2023-04-26T07:19:53;101264.82;;;5.95;55.52
64632;BME280;58358;50.936;0.246;2023-04-26T07:22:17;101260.79;;;6.41;53.51
64632;BME280;58358;50.936;0.246;2023-04-26T07:24:42;101253.76;;;7.01;53.10
64632;BME280;58358;50.936;0.246;2023-04-26T07:27:08;101256.33;;;7.17;51.39
64632;BME280;58358;50.936;0.246;2023-04-26T07:29:34;101256.70;;;6.57;51.71
64632;BME280;58358;50.936;0.246;2023-04-26T07:32:00;101254.48;;;7.14;52.03
64632;BME280;58358;50.936;0.246;2023-04-26T07:34:26;101258.09;;;5.48;54.89
64632;BME280;58358;50.936;0.246;2023-04-26T07:36:52;101250.85;;;6.09;53.52
64632;BME280;58358;50.936;0.246;2023-04-26T07:39:17;101250.66;;;6.69;53.70
64632;BME280;58358;50.936;0.246;2023-04-26T07:41:43;101248.00;;;6.49;52.70
64632;BME280;58358;50.936;0.246;2023-04-26T07:44:09;101251.18;;;6.20;54.22
64632;BME280;58358;50.936;0.246;2023-04-26T07:46:35;101254.51;;;6.17;54.03
64632;BME280;58358;50.936;0.246;2023-04-26T07:49:01;101258.55;;;6.64;52.58
64632;BME280;58358;50.936;0.246;2023-04-26T07:51:26;101255.13;;;6.88;52.05
64632;BME280;58358;50.936;0.246;2023-04-26T07:53:52;101256.37;;;7.28;50.91
64632;BME280;58358;50.936;0.246;2023-04-26T07:56:18;101260.45;;;7.17;50.89
64632;BME280;58358;50.936;0.246;2023-04-26T07:58:43;101262.20;;;6.31;53.05
64632;BME280;58358;50.936;0.246;2023-04-26T08:01:09;101261.66;;;7.91;50.85
64632;BME280;58358;50.936;0.246;2023-04-26T08:03:35;101264.74;;;7.73;49.62
64632;BME280;58358;50.936;0.246;2023-04-26T08:06:01;101266.61;;;7.87;50.02
64632;BME280;58358;50.936;0.246;2023-04-26T08:08:26;101272.85;;;5.74;51.38
64632;BME280;58358;50.936;0.246;2023-04-26T08:10:53;101264.72;;;6.42;51.72
64632;BME280;58358;50.936;0.246;2023-04-26T08:13:18;101269.28;;;5.43;51.84
64632;BME280;58358;50.936;0.246;2023-04-26T08:15:44;101265.45;;;7.16;50.36
64632;BME280;58358;50.936;0.246;2023-04-26T08:18:10;101272.36;;;6.82;51.00
64632;BME280;58358;50.936;0.246;2023-04-26T08:20:35;101274.17;;;6.37;51.91
64632;BME280;58358;50.936;0.246;2023-04-26T08:23:02;101269.49;;;6.34;52.26
64632;BME280;58358;50.936;0.246;2023-04-26T08:25:27;101270.36;;;6.77;51.22
64632;BME280;58358;50.936;0.246;2023-04-26T08:27:53;101263.52;;;7.31;50.21
64632;BME280;58358;50.936;0.246;2023-04-26T08:30:19;101260.24;;;6.49;50.50
64632;BME280;58358;50.936;0.246;2023-04-26T08:32:45;101269.29;;;6.72;48.56
64632;BME280;58358;50.936;0.246;2023-04-26T08:35:10;101262.78;;;6.45;48.60
64632;BME280;58358;50.936;0.246;2023-04-26T08:37:36;101262.50;;;6.10;49.17
64632;BME280;58358;50.936;0.246;2023-04-26T08:40:02;101261.42;;;6.36;48.79
64632;BME280;58358;50.936;0.246;2023-04-26T08:42:28;101266.17;;;5.62;50.46
64632;BME280;58358;50.936;0.246;2023-04-26T08:44:54;101260.58;;;6.44;48.31
64632;BME280;58358;50.936;0.246;2023-04-26T08:47:24;101261.29;;;6.52;48.11
64632;BME280;58358;50.936;0.246;2023-04-26T08:49:46;101259.71;;;6.69;47.98
64632;BME280;58358;50.936;0.246;2023-04-26T08:52:12;101258.88;;;6.65;49.63
64632;BME280;58358;50.936;0.246;2023-04-26T08:54:38;101256.01;;;8.35;46.30
64632;BME280;58358;50.936;0.246;2023-04-26T08:57:03;101255.86;;;8.12;46.08
64632;BME280;58358;50.936;0.246;2023-04-26T08:59:29;101257.16;;;7.20;47.77
64632;BME280;58358;50.936;0.246;2023-04-26T09:01:54;101270.70;;;6.42;47.37
64632;BME280;58358;50.936;0.246;2023-04-26T09:04:20;101266.52;;;6.77;45.51
64632;BME280;58358;50.936;0.246;2023-04-26T09:06:46;101266.15;;;7.25;45.64
64632;BME280;58358;50.936;0.246;2023-04-26T09:09:12;101272.33;;;6.63;47.87
64632;BME280;58358;50.936;0.246;2023-04-26T09:11:52;101272.25;;;6.81;46.80
64632;BME280;58358;50.936;0.246;2023-04-26T09:14:03;101270.91;;;7.91;45.45
64632;BME280;58358;50.936;0.246;2023-04-26T09:16:34;101266.93;;;7.57;44.06
64632;BME280;58358;50.936;0.246;2023-04-26T09:18:54;101267.09;;;6.44;46.50
64632;BME280;58358;50.936;0.246;2023-04-26T09:21:20;101261.54;;;7.12;45.64
64632;BME280;58358;50.936;0.246;2023-04-26T09:23:57;101265.26;;;6.46;46.95
64632;BME280;58358;50.936;0.246;2023-04-26T09:26:17;101262.66;;;7.03;45.26
64632;BME280;58358;50.936;0.246;2023-04-26T09:28:37;101265.18;;;6.92;45.61
64632;BME280;58358;50.936;0.246;2023-04-26T09:31:02;101271.38;;;6.87;45.47
64632;BME280;58358;50.936;0.246;2023-04-26T09:33:28;101269.20;;;7.45;43.96
64632;BME280;58358;50.936;0.246;2023-04-26T09:35:54;101268.18;;;6.59;45.01
64632;BME280;58358;50.936;0.246;2023-04-26T09:38:20;101271.83;;;8.77;43.49
64632;BME280;58358;50.936;0.246;2023-04-26T09:40:47;101270.20;;;7.79;43.86
64632;BME280;58358;50.936;0.246;2023-04-26T09:43:13;101269.20;;;6.02;46.30
64632;BME280;58358;50.936;0.246;2023-04-26T09:45:44;101270.71;;;6.49;46.52
64632;BME280;58358;50.936;0.246;2023-04-26T09:48:14;101273.86;;;5.90;44.51
64632;BME280;58358;50.936;0.246;2023-04-26T09:50:30;101272.77;;;6.65;44.12
64632;BME280;58358;50.936;0.246;2023-04-26T09:52:55;101273.59;;;6.36;44.55
64632;BME280;58358;50.936;0.246;2023-04-26T09:55:25;101272.13;;;7.35;42.88
64632;BME280;58358;50.936;0.246;2023-04-26T09:57:46;101273.76;;;8.21;42.40
64632;BME280;58358;50.936;0.246;2023-04-26T10:00:13;101272.32;;;6.94;45.94
64632;BME280;58358;50.936;0.246;2023-04-26T10:02:38;101271.15;;;7.73;43.20
64632;BME280;58358;50.936;0.246;2023-04-26T10:05:06;101273.56;;;7.87;41.96
64632;BME280;58358;50.936;0.246;2023-04-26T10:07:29;101272.42;;;7.59;42.98
64632;BME280;58358;50.936;0.246;2023-04-26T10:09:56;101271.65;;;7.31;43.59
64632;BME280;58358;50.936;0.246;2023-04-26T10:12:20;101271.04;;;8.26;42.74
64632;BME280;58358;50.936;0.246;2023-04-26T10:14:46;101273.12;;;8.13;43.20
64632;BME280;58358;50.936;0.246;2023-04-26T10:17:12;101269.09;;;8.28;40.27
64632;BME280;58358;50.936;0.246;2023-04-26T10:19:37;101271.12;;;8.18;41.16
64632;BME280;58358;50.936;0.246;2023-04-26T10:22:05;101271.11;;;8.19;41.78
64632;BME280;58358;50.936;0.246;2023-04-26T10:24:27;101268.74;;;7.12;41.88
64632;BME280;58358;50.936;0.246;2023-04-26T10:26:54;101273.63;;;7.83;41.43
64632;BME280;58358;50.936;0.246;2023-04-26T10:29:19;101270.48;;;7.63;41.54
64632;BME280;58358;50.936;0.246;2023-04-26T10:34:17;101261.02;;;9.16;39.38
64632;BME280;58358;50.936;0.246;2023-04-26T10:39:17;101254.83;;;8.25;40.44
64632;BME280;58358;50.936;0.246;2023-04-26T10:41:30;101251.73;;;9.49;40.66
64632;BME280;58358;50.936;0.246;2023-04-26T10:43:53;101250.27;;;8.64;39.27
64632;BME280;58358;50.936;0.246;2023-04-26T10:46:33;101256.79;;;9.49;39.34
64632;BME280;58358;50.936;0.246;2023-04-26T10:48:45;101249.09;;;8.71;39.54
64632;BME280;58358;50.936;0.246;2023-04-26T10:51:11;101242.21;;;9.13;39.11
64632;BME280;58358;50.936;0.246;2023-04-26T10:56:02;101240.65;;;8.49;40.51
64632;BME280;58358;50.936;0.246;2023-04-26T10:58:29;101241.20;;;8.58;39.67
64632;BME280;58358;50.936;0.246;2023-04-26T11:01:03;101235.28;;;7.80;39.96
64632;BME280;58358;50.936;0.246;2023-04-26T11:03:22;101227.23;;;9.25;39.21
64632;BME280;58358;50.936;0.246;2023-04-26T11:05:51;101230.78;;;9.19;41.32
64632;BME280;58358;50.936;0.246;2023-04-26T11:08:16;101234.08;;;9.64;40.14
64632;BME280;58358;50.936;0.246;2023-04-26T11:10:37;101231.00;;;10.41;39.18
64632;BME280;58358;50.936;0.246;2023-04-26T11:13:02;101229.38;;;9.77;38.83
64632;BME280;58358;50.936;0.246;2023-04-26T11:15:29;101226.43;;;10.25;38.94
64632;BME280;58358;50.936;0.246;2023-04-26T11:17:53;101224.03;;;10.96;37.81
64632;BME280;58358;50.936;0.246;2023-04-26T11:20:19;101223.84;;;9.43;39.82
64632;BME280;58358;50.936;0.246;2023-04-26T11:22:45;101217.83;;;9.77;38.95
64632;BME280;58358;50.936;0.246;2023-04-26T11:25:11;101217.47;;;9.44;40.16
64632;BME280;58358;50.936;0.246;2023-04-26T11:27:36;101216.65;;;9.29;40.15
64632;BME280;58358;50.936;0.246;2023-04-26T11:30:02;101225.42;;;8.54;41.77
64632;BME280;58358;50.936;0.246;2023-04-26T11:32:27;101219.87;;;9.15;40.92
64632;BME280;58358;50.936;0.246;2023-04-26T11:34:53;101228.20;;;10.72;39.61
64632;BME280;58358;50.936;0.246;2023-04-26T11:37:19;101225.84;;;9.01;42.16
64632;BME280;58358;50.936;0.246;2023-04-26T11:39:44;101225.53;;;8.67;41.51
64632;BME280;58358;50.936;0.246;2023-04-26T11:42:11;101225.70;;;10.36;39.94
64632;BME280;58358;50.936;0.246;2023-04-26T11:44:36;101220.26;;;11.12;38.98
64632;BME280;58358;50.936;0.246;2023-04-26T11:47:02;101225.33;;;11.39;38.07
64632;BME280;58358;50.936;0.246;2023-04-26T11:49:27;101223.18;;;11.01;38.72
64632;BME280;58358;50.936;0.246;2023-04-26T11:51:52;101224.52;;;12.30;36.54
64632;BME280;58358;50.936;0.246;2023-04-26T11:54:27;101221.04;;;10.18;39.69
64632;BME280;58358;50.936;0.246;2023-04-26T11:56:44;101215.32;;;11.03;38.28
64632;BME280;58358;50.936;0.246;2023-04-26T11:59:09;101222.46;;;10.06;40.51
64632;BME280;58358;50.936;0.246;2023-04-26T12:01:35;101218.69;;;10.70;39.44
64632;BME280;58358;50.936;0.246;2023-04-26T12:04:01;101211.84;;;9.95;40.06
64632;BME280;58358;50.936;0.246;2023-04-26T12:06:29;101216.02;;;9.43;40.83
64632;BME280;58358;50.936;0.246;2023-04-26T12:08:51;101212.46;;;10.92;39.53
64632;BME280;58358;50.936;0.246;2023-04-26T12:11:17;101212.36;;;11.00;38.94
64632;BME280;58358;50.936;0.246;2023-04-26T12:13:44;101209.08;;;11.30;37.87
64632;BME280;58358;50.936;0.246;2023-04-26T12:16:11;101214.46;;;11.41;37.87
64632;BME280;58358;50.936;0.246;2023-04-26T12:18:34;101215.07;;;11.06;38.12
64632;BME280;58358;50.936;0.246;2023-04-26T12:21:00;101215.38;;;11.54;37.87
64632;BME280;58358;50.936;0.246;2023-04-26T12:23:25;101211.03;;;10.96;37.69
64632;BME280;58358;50.936;0.246;2023-04-26T12:25:53;101206.84;;;11.62;37.67
64632;BME280;58358;50.936;0.246;2023-04-26T12:28:16;101212.54;;;10.67;39.09
64632;BME280;58358;50.936;0.246;2023-04-26T12:30:42;101201.55;;;11.69;38.25
64632;BME280;58358;50.936;0.246;2023-04-26T12:33:08;101201.43;;;12.09;37.91
64632;BME280;58358;50.936;0.246;2023-04-26T12:35:34;101199.35;;;10.71;39.43
64632;BME280;58358;50.936;0.246;2023-04-26T12:37:59;101200.56;;;11.64;38.88
64632;BME280;58358;50.936;0.246;2023-04-26T12:40:26;101205.74;;;12.52;38.15
64632;BME280;58358;50.936;0.246;2023-04-26T12:42:50;101204.08;;;12.70;36.85
64632;BME280;58358;50.936;0.246;2023-04-26T12:45:16;101194.49;;;11.03;38.99
64632;BME280;58358;50.936;0.246;2023-04-26T12:47:41;101197.64;;;10.97;39.04
64632;BME280;58358;50.936;0.246;2023-04-26T12:50:07;101196.31;;;10.53;38.78
64632;BME280;58358;50.936;0.246;2023-04-26T12:52:33;101193.98;;;11.78;38.91
64632;BME280;58358;50.936;0.246;2023-04-26T12:54:58;101201.67;;;10.91;40.70
64632;BME280;58358;50.936;0.246;2023-04-26T12:57:23;101199.18;;;11.43;38.90